Aeroporto :
LOGIN :

Iscrizione | Disclaimer

   EN    FR    IT 

 










Sommario :    VFR   VFR Marginale   IFR   IFR Intensivo   IFR Molto Intensivo
Visibilità : 
Base nubi : 
>= 8 km
>= 3000ft
5 / 8 km
1000 / 3000 ft
1500m / 5 km
500 / 1000 ft
800 / 1500m
200 / 500 ft
< 800m
< 200 ft
Simboli :   Temporali  Nebbia  Neve Forte  Precipitazioni Forti  Vento > 20 kt
SIGMETs :   Varie  Temporali  Ghiacco  Turbolenza  Onda orograficha  Ceneri Vulcaniche







- Altitudine del aeroporto : 327 ft
- Codice IATA : BHX
- Carte del aeroporto


EGBB - Birmingham

ULTIMO METAR :
  • 220850Z 11007KT 090V150 7000 FEW022 02/M00 Q1025

METARs OBSOLETI :
  • 220820Z 10006KT 4600 HZ FEW009 SCT020 02/00 Q1025
  • 220750Z 09006KT 4500 HZ FEW009 SCT017 02/00 Q1025
  • 220720Z 09007KT 070V140 4000 HZ FEW010 SCT014 BKN027 02/01 Q1025
  • 220650Z 09007KT 060V130 6000 BKN025 02/01 Q1025
  • 220620Z 09006KT 9999 BKN025 03/01 Q1025
  • 220550Z 08006KT 9999 SCT018 OVC023 03/01 Q1025

TAF TAF EGBB
Valido dal 22 a 06 ore il 23 a 06 ore UTC


220456Z 2206/2306 05005KT 9999 BKN012
BECMG 2206/2209 SCT025
TEMPO 2206/2209 6000
PROB30 2206/2209 0300 FG BKN001
ATIS : +44 121 780 0910
Nessun NOTAM noto per questo aeroporto.



MetMap, La meteo Aeronautica in un colpo d'occhio ! - Copyright ORBIFLY Dicembre 2007 - Disclaimer

ORBIFLY MET'MAP TEAM :

Programmazione e sviluppo : Alexandra Zaïnal
Concezione e sviluppo : Baudouin d'Aumeries
Co-Programmazione e sviluppo : Marc-Olivier Méhu
Supporto tecnico e logistico : Manuel Goepfert
Aiuto per la traduzione : Arnaldo La Scala

Contatto : metmap@orbifly.com




FONTI E CREDITI :

   NOAA